Holgate, Ohio
Current Conditions -  °F | °C
As of 8:53 AM on Monday 20 Oct 2014 (Local Time) from KDFI Reporting Station
Overcast Overcast  
Wind Chill: 50°   Ceiling: 7000
Heat Index: 50°   Visibility: 9mi
Dew Point: 44°   Wind: 9mph
Humidity: 80%   Direction: 200°SSW
Pressure: 29.88"   Gusts: NA
Location:  41.25°N, 84.13°W
Report Text: KDFI 201253Z AUTO 20008KT 9SM OVC070 10/07 A2988 RMK AO2 SLP122 T01000067
Loading
Personal Weather Stations






























Interactive Weather Map
Tropical Storm Tracking
New forecast layout! Learn more

10-Day Weather Forecast

Advertisements
Track Severe Weather on mobile